Terminal Aerodrome Forecast
Issued by NWS

Home | Current Version | Previous Version | Text Only | Print | Product List | Glossary On
Versions: 1 2 3 4 5 6 7 8 9 10 11 12 13
688
FTUS45 KRIW 221124
TAFRKS
TAF
KRKS 221124Z 2212/2312 25012G18KT P6SM FEW030 BKN070
     FM221500 25015G25KT P6SM BKN100
     FM222000 27020G30KT P6SM SCT100 BKN200
     FM230100 26014G20KT P6SM BKN200=

USA.gov is the U.S. government's official web portal to all federal, state and local government web resources and services.